Time;durP1;ratioP1;P1;durP2;ratioP2;P2;SDS_P1;SDS_P2;PMS_P1;PMS_P2;Temp;Humidity;BMP_temperature;BMP_pressure;BME280_temperature;BME280_humidity;BME280_pressure;Samples;Min_cycle;Max_cycle;Signal;HPM_P1;HPM_P2
2024/01/13 00:09:25;;;;;;;15.47;8.47;;;;;;;;;;20886716;28;20765;-68
2024/01/13 00:19:27;;;;;;;14.73;7.97;;;;;;;;;;20912952;28;20219;-69
2024/01/13 00:29:29;;;;;;;10.50;7.00;;;;;;;;;;20838575;28;20236;-68
2024/01/13 00:39:31;;;;;;;12.97;7.70;;;;;;;;;;20829383;28;20204;-68
2024/01/13 00:49:33;;;;;;;13.83;8.03;;;;;;;;;;20829483;28;20584;-68
2024/01/13 00:59:36;;;;;;;14.37;8.63;;;;;;;;;;20828721;28;20300;-68
2024/01/13 01:09:38;;;;;;;15.00;8.73;;;;;;;;;;20828295;28;20240;-68
2024/01/13 01:19:40;;;;;;;13.63;8.00;;;;;;;;;;20835102;28;20299;-67
2024/01/13 01:46:30;;;;;;;13.63;8.10;;;0.00;93.70;;;;;;21068171;28;20564;-70
2024/01/13 01:56:34;;;;;;;14.93;8.70;;;2.70;94.70;;;;;;21067375;28;20658;-70
2024/01/13 02:06:37;;;;;;;15.50;8.53;;;;;;;;;;21067593;28;20217;-69
2024/01/13 02:16:39;;;;;;;12.93;8.07;;;;;;;;;;21066247;28;20570;-69
2024/01/13 02:26:41;;;;;;;17.97;9.27;;;;;;;;;;21064790;28;20655;-70
2024/01/13 02:36:43;;;;;;;16.30;9.63;;;;;;;;;;21063795;28;20739;-70
2024/01/13 02:46:45;;;;;;;19.73;10.03;;;;;;;;;;21063683;28;20289;-70
2024/01/13 02:56:48;;;;;;;17.50;9.67;;;;;;;;;;21012411;28;20238;-69
2024/01/13 03:06:50;;;;;;;20.13;10.83;;;;;;;;;;21005959;28;20272;-70
2024/01/13 03:22:40;;;;;;;17.80;10.53;;;;;;;;;;20984415;28;20579;-69
2024/01/13 03:32:43;;;;;;;24.87;12.57;;;2.50;94.30;;;;;;20983799;28;20292;-69
2024/01/13 03:42:46;;;;;;;21.80;11.47;;;;;;;;;;20982713;28;20681;-69
2024/01/13 03:52:48;;;;;;;24.00;11.73;;;;;;;;;;20982082;28;20264;-69
2024/01/13 04:02:50;;;;;;;26.23;13.50;;;;;;;;;;20981412;28;20211;-69
2024/01/13 04:12:53;;;;;;;26.13;12.47;;;;;;;;;;20980047;28;20214;-69
2024/01/13 04:22:55;;;;;;;27.17;13.07;;;;;;;;;;20979256;28;20229;-69
2024/01/13 04:32:57;;;;;;;26.47;12.87;;;;;;;;;;20929938;28;20204;-70
2024/01/13 04:43:01;;;;;;;20.77;11.07;;;;;;;;;;20923195;28;20211;-70
2024/01/13 04:53:03;;;;;;;24.47;11.97;;;;;;;;;;20922246;28;20228;-70
2024/01/13 05:03:05;;;;;;;24.40;11.90;;;;;;;;;;20921880;28;20218;-70
2024/01/13 05:13:07;;;;;;;23.30;10.73;;;;;;;;;;20920521;28;20285;-70
2024/01/13 05:23:10;;;;;;;24.60;11.40;;;;;;;;;;20919998;28;20294;-70
2024/01/13 05:33:12;;;;;;;21.23;10.50;;;;;;;;;;20919443;28;20231;-71
2024/01/13 05:43:18;;;;;;;20.73;10.70;;;;;;;;;;20917453;28;20211;-70
2024/01/13 06:03:12;;;;;;;20.57;11.27;;;;;;;;;;20985135;28;20565;-70
2024/01/13 06:13:14;;;;;;;22.70;11.75;;;;;;;;;;20982480;28;20207;-70
2024/01/13 06:33:03;;;;;;;21.40;10.37;;;;;;;;;;20984766;28;20569;-69
2024/01/13 06:43:10;;;;;;;20.67;10.50;;;;;;;;;;20979000;28;20214;-69
2024/01/13 06:53:13;;;;;;;20.53;9.90;;;;;;;;;;20936756;28;20573;-70
2024/01/13 07:03:15;;;;;;;19.67;10.20;;;;;;;;;;20933670;28;20291;-69
2024/01/13 07:13:17;;;;;;;19.83;10.00;;;;;;;;;;20941713;28;20222;-70
2024/01/13 07:23:20;;;;;;;20.23;10.27;;;;;;;;;;20959788;28;20269;-69
2024/01/13 07:33:22;;;;;;;20.97;10.57;;;;;;;;;;20947624;28;20218;-69
2024/01/13 07:43:24;;;;;;;19.83;10.03;;;;;;;;;;20886962;28;20263;-71
2024/01/13 07:53:26;;;;;;;16.97;9.27;;;;;;;;;;20879001;28;20200;-70
2024/01/13 08:03:29;;;;;;;18.47;9.17;;;;;;;;;;20881018;28;20701;-67
2024/01/13 08:13:31;;;;;;;16.73;8.37;;;;;;;;;;20878040;28;20652;-68
2024/01/13 08:23:33;;;;;;;16.10;8.13;;;;;;;;;;20955269;28;20702;-68
2024/01/13 08:33:36;;;;;;;15.47;8.53;;;;;;;;;;20985193;28;20279;-69
2024/01/13 08:43:40;;;;;;;19.47;9.93;;;;;;;;;;20919190;28;20228;-69
2024/01/13 08:53:43;;;;;;;15.93;9.33;;;;;;;;;;20908129;28;20239;-68
2024/01/13 09:03:46;;;;;;;18.10;9.47;;;;;;;;;;20835044;28;20320;-69
2024/01/13 09:23:03;;;;;;;17.97;9.77;;;;;;;;;;20961341;28;20591;-70
2024/01/13 09:33:05;;;;;;;14.63;8.23;;;;;;;;;;20984070;28;20610;-73
2024/01/13 09:43:40;;;;;;;14.57;8.37;;;3.00;91.70;;;;;;20911257;28;20217;-67
2024/01/13 09:53:53;;;;;;;14.37;7.57;;;3.30;92.20;;;;;;20899034;28;20232;-64
2024/01/13 10:03:56;;;;;;;15.93;11.52;;;;;;;;;;20896805;28;20447;-66
2024/01/13 10:13:59;;;;;;;15.87;8.40;;;3.10;91.80;;;;;;20897489;28;20645;-69
2024/01/13 10:24:01;;;;;;;15.70;8.43;;;;;;;;;;20910637;28;20200;-69
2024/01/13 10:34:10;;;;;;;16.27;9.03;;;2.70;91.60;;;;;;20925764;28;20336;-70
2024/01/13 10:44:16;;;;;;;15.23;8.30;;;3.10;91.70;;;;;;20923027;28;20204;-70
2024/01/13 10:54:18;;;;;;;13.73;7.63;;;;;;;;;;20922636;28;20236;-69
2024/01/13 11:04:22;;;;;;;13.00;7.93;;;3.30;92.00;;;;;;20921718;28;20212;-70
2024/01/13 11:14:32;;;;;;;14.37;8.37;;;;;;;;;;20917438;28;20267;-71
2024/01/13 11:24:34;;;;;;;15.03;8.67;;;;;;;;;;20795326;28;20642;-71
2024/01/13 11:34:36;;;;;;;15.93;8.83;;;;;;;;;;20777169;28;20237;-72
2024/01/13 11:44:45;;;;;;;14.77;8.70;;;4.40;91.80;;;;;;20792899;28;20205;-71
2024/01/13 11:54:48;;;;;;;16.70;9.23;;;3.00;91.50;;;;;;20783677;28;20233;-69
2024/01/13 12:04:50;;;;;;;15.90;8.37;;;;;;;;;;20782113;28;20216;-70
2024/01/13 12:14:53;;;;;;;15.60;9.13;;;;;;;;;;20761930;28;20315;-70
2024/01/13 12:24:55;;;;;;;19.73;9.47;;;;;;;;;;20822233;28;20199;-69
2024/01/13 12:34:57;;;;;;;15.70;9.23;;;;;;;;;;20913943;28;20270;-70
2024/01/13 12:44:59;;;;;;;9.77;6.10;;;;;;;;;;20913569;28;20212;-70
2024/01/13 12:55:02;;;;;;;9.33;6.00;;;;;;;;;;20853437;28;20280;-69
2024/01/13 13:05:17;;;;;;;9.53;5.30;;;;;;;;;;20796527;28;20661;-70
2024/01/13 13:15:19;;;;;;;9.63;6.10;;;;;;;;;;20766640;28;20244;-73
2024/01/13 13:25:22;;;;;;;9.40;5.63;;;;;;;;;;20775098;28;20277;-69
2024/01/13 13:35:26;;;;;;;10.67;6.57;;;;;;;;;;20760258;28;20281;-72
